Terminal Aerodrome Forecast
Issued by NWS

Home | Current Version | Previous Version | Text Only | Print | Product List | Glossary On
Versions: 1 2 3 4 5 6 7 8 9 10 11 12 13 14 15 16 17 18
000
FTUS46 KSGX 012329
TAFCRQ
TAF
KCRQ 012329Z 0200/0224 10010KT P6SM -RA FEW015 OVC060
     FM020300 VRB05KT P6SM VCSH FEW025 BKN060
     FM021300 13009KT P6SM -SHRA VCTS FEW015 SCT025CB BKN050
     FM021900 21011KT P6SM -SHRA VCTS FEW015 SCT025CB BKN050=

USA.gov is the U.S. government's official web portal to all federal, state and local government web resources and services.